Flight Track Log - Related Links

Times and Time Zones

All times are in EDT time to prevent confusion due to time zone crossing. See the FDX431 flight status page for this flight to view local times or setup timezone preferences in your user account.

Time Position Orientation Groundspeed Altitude Reporting Facility
EDT Latitude Longitude Course Direction KTS MPH feet Rate Location/Type
Sat 10:26:02 AM 33.9333 -118.4333 254° West 227 261 1,500  Level Southern California TRACON
Sat 10:26:33 AM 33.9253 -118.4669 230° Southwest 221 254 2,200 2,308 Climbing Los Angeles Center
Sat 10:27:33 AM 33.8781 -118.5356 197° South 279 321 5,000 2,550 Climbing Los Angeles Center
Sat 10:28:33 AM 33.8067 -118.5611 165° South 277 319 7,300 2,900 Climbing Los Angeles Center
Sat 10:29:33 AM 33.7236 -118.5339 128° Southeast 267 307 10,800 3,174 Climbing Los Angeles Center
Sat 10:30:34 AM 33.6669 -118.4472 104° East 275 316 13,700 2,650 Climbing Los Angeles Center
Sat 10:31:33 AM 33.6439 -118.3344 91° East 303 349 16,100 2,067 Climbing Los Angeles Center
Sat 10:32:33 AM 33.6422 -118.1872 89° East 377 434 17,800 2,050 Climbing Los Angeles Center
Sat 10:33:33 AM 33.6450 -118.0300 90° East 417 480 20,200 2,250 Climbing Los Angeles Center
Sat 10:34:33 AM 33.6453 -117.8603 91° East 465 535 22,300 2,100 Climbing Los Angeles Center
Sat 10:35:33 AM 33.6436 -117.6683 90° East 502 578 24,400 2,300 Climbing Los Angeles Center
Sat 10:36:33 AM 33.6439 -117.4886 90° East 522 601 26,900 2,650 Climbing Los Angeles Center
Sat 10:37:33 AM 33.6436 -117.3089 90° East 535 616 29,700 2,500 Climbing Los Angeles Center
Sat 10:38:33 AM 33.6431 -117.1542 91° East 524 603 31,900 2,000 Climbing Los Angeles Center
Sat 10:39:33 AM 33.6400 -116.9769 91° East 524 603 33,700 1,550 Climbing Los Angeles Center
Sat 10:40:33 AM 33.6369 -116.8022 89° East 519 597 35,000 650 Climbing Los Angeles Center
Sat 10:41:33 AM 33.6400 -116.6278 81° East 514 592 35,000  Level Los Angeles Center
Sat 10:42:33 AM 33.6636 -116.4406 81° East 514 592 35,000  Level Los Angeles Center
Sat 10:43:33 AM 33.6869 -116.2708 81° East 519 597 35,000  Level Los Angeles Center
Sat 10:44:33 AM 33.7100 -116.0986 81° East 524 603 35,000  Level Los Angeles Center
Sat 10:45:33 AM 33.7328 -115.9289 81° East 518 596 35,000  Level Los Angeles Center
Sat 10:46:33 AM 33.7553 -115.7564 82° East 518 596 35,000  Level Los Angeles Center
Sat 10:47:33 AM 33.7756 -115.5814 81° East 524 603 35,000  Level Los Angeles Center
Sat 10:48:33 AM 33.7975 -115.4114 81° East 524 603 35,000 -50 Level Los Angeles Center
Sat 10:49:33 AM 33.8194 -115.2386 82° East 524 603 34,900  Descending Los Angeles Center
Sat 10:50:33 AM 33.8389 -115.0658 80° East 524 603 35,000 50 Climbing Los Angeles Center
Sat 10:51:33 AM 33.8625 -114.8981 82° East 517 595 35,000 -50 Level Los Angeles Center
Sat 10:52:33 AM 33.8814 -114.7250 82° East 517 595 34,900  Descending Los Angeles Center
Sat 10:53:33 AM 33.9003 -114.5544 81° East 517 595 35,000 59 Climbing Los Angeles Center
Sat 10:55:57 AM 33.9500 -114.1558 82° East 519 597 35,100  Climbing Albuquerque Center
Sat 10:56:59 AM 33.9692 -113.9836 82° East 516 594 35,000 -97 Descending Albuquerque Center
Sat 10:58:01 AM 33.9881 -113.8106 82° East 515 593 34,900  Descending Albuquerque Center
Sat 10:59:03 AM 34.0083 -113.6394 83° East 511 588 35,000 48 Climbing Albuquerque Center
Sat 11:00:05 AM 34.0264 -113.4697 83° East 506 582 35,000  Level Albuquerque Center
Sat 11:01:07 AM 34.0447 -113.2964 83° East 509 586 35,000 48 Level Albuquerque Center
Sat 11:02:09 AM 34.0633 -113.1225 83° East 514 592 35,100  Climbing Albuquerque Center
Sat 11:03:11 AM 34.0819 -112.9500 83° East 513 590 35,000 -48 Descending Albuquerque Center
Sat 11:04:13 AM 34.1036 -112.7419 83° East 512 589 35,000  Level Albuquerque Center
Sat 11:05:15 AM 34.1219 -112.5708 83° East 509 586 35,000  Level Albuquerque Center
Sat 11:06:18 AM 34.1392 -112.3997 83° East 507 583 35,000  Level Albuquerque Center
Sat 11:07:20 AM 34.1561 -112.2278 83° East 506 582 35,000  Level Albuquerque Center
Sat 11:08:22 AM 34.1728 -112.0547 83° East 507 583 35,000  Level Albuquerque Center
Sat 11:09:24 AM 34.1903 -111.8775 83° East 504 580 35,000  Level Albuquerque Center
Sat 11:10:26 AM 34.2078 -111.6961 83° East 505 581 35,000  Level Albuquerque Center
Sat 11:11:28 AM 34.2231 -111.5336 84° East 506 582 35,000 48 Level Albuquerque Center
Sat 11:12:30 AM 34.2392 -111.3600 83° East 508 585 35,100  Climbing Albuquerque Center
Sat 11:13:32 AM 34.2558 -111.1858 84° East 511 588 35,000 -48 Descending Albuquerque Center
Sat 11:14:35 AM 34.2708 -111.0144 84° East 508 585 35,000  Level Albuquerque Center
Sat 11:15:37 AM 34.2853 -110.8425 84° East 506 582 35,000  Level Albuquerque Center
Sat 11:16:39 AM 34.3011 -110.6717 83° East 504 580 35,000  Level Albuquerque Center
Sat 11:17:41 AM 34.3178 -110.5022 85° East 502 578 35,000  Level Albuquerque Center
Sat 11:18:43 AM 34.3333 -110.2944 84° East 508 585 35,000  Level Albuquerque Center
Sat 11:19:45 AM 34.3461 -110.1331 84° East 507 583 35,000 48 Level Albuquerque Center
Sat 11:20:47 AM 34.3617 -109.9450 84° East 505 581 35,100  Climbing Albuquerque Center
Sat 11:21:49 AM 34.3747 -109.7831 84° East 506 582 35,000 -48 Descending Albuquerque Center
Sat 11:22:52 AM 34.3894 -109.5961 84° East 503 579 35,000  Level Albuquerque Center
Sat 11:23:54 AM 34.4019 -109.4378 85° East 499 574 35,000  Level Albuquerque Center
Sat 11:24:56 AM 34.4139 -109.2817 84° East 494 568 35,000  Level Albuquerque Center
Sat 11:25:58 AM 34.4297 -109.0964 81° East 494 568 35,000 48 Level Albuquerque Center
Sat 11:27:00 AM 34.4508 -108.9397 81° East 496 571 35,100  Climbing Albuquerque Center
Sat 11:28:02 AM 34.4753 -108.7539 81° East 498 573 35,000 -48 Descending Albuquerque Center
Sat 11:29:04 AM 34.4964 -108.5922 81° East 502 578 35,000  Level Albuquerque Center
Sat 11:30:06 AM 34.5197 -108.4089 81° East 506 582 35,000  Level Albuquerque Center
Sat 11:31:08 AM 34.5411 -108.2400 82° East 507 583 35,000  Level Albuquerque Center
Sat 11:32:10 AM 34.5617 -108.0706 81° East 509 586 35,000  Level Albuquerque Center
Sat 11:33:13 AM 34.5822 -107.9028 82° East 506 582 35,000  Level Albuquerque Center
Sat 11:34:15 AM 34.6067 -107.7006 81° East 506 582 35,000  Level Albuquerque Center
Sat 11:35:17 AM 34.6272 -107.5344 82° East 503 579 35,000  Level Albuquerque Center
Sat 11:36:19 AM 34.6458 -107.3708 82° East 496 571 35,000  Level Albuquerque Center
Sat 11:37:21 AM 34.6644 -107.2097 82° East 490 564 35,000  Level Albuquerque Center
Sat 11:38:23 AM 34.6828 -107.0467 82° East 490 564 35,000  Level Albuquerque Center
Sat 11:39:25 AM 34.7047 -106.8464 83° East 500 575 35,000  Level Albuquerque Center
Sat 11:40:27 AM 34.7219 -106.6808 82° East 502 578 35,000  Level Albuquerque Center
Sat 11:41:29 AM 34.7414 -106.5144 83° East 502 578 35,000  Level Albuquerque Center
Sat 11:42:31 AM 34.7586 -106.3497 83° East 498 573 35,000  Level Albuquerque Center
Sat 11:43:33 AM 34.7769 -106.1731 82° East 501 577 35,000  Level Albuquerque Center
Sat 11:44:34 AM 34.7953 -106.0036 83° East 501 577 35,000  Level Albuquerque Center
Sat 11:45:36 AM 34.8156 -105.8033 83° East 506 582 35,000 48 Level Albuquerque Center
Sat 11:46:38 AM 34.8339 -105.6314 83° East 509 586 35,100 48 Climbing Albuquerque Center
Sat 11:47:40 AM 34.8514 -105.4583 83° East 510 587 35,100 -48 Level Albuquerque Center
Sat 11:48:42 AM 34.8686 -105.2867 83° East 508 585 35,000 -48 Descending Albuquerque Center
Sat 11:49:44 AM 34.8858 -105.1150 83° East 508 585 35,000  Level Albuquerque Center
Sat 11:50:46 AM 34.9028 -104.9431 83° East 508 585 35,000  Level Albuquerque Center
Sat 11:51:48 AM 34.9194 -104.7717 83° East 507 583 35,000  Level Albuquerque Center
Sat 11:52:50 AM 34.9381 -104.5725 83° East 506 582 35,000  Level Albuquerque Center
Sat 11:53:52 AM 34.9539 -104.4031 84° East 504 580 35,000 48 Level Albuquerque Center
Sat 11:54:54 AM 34.9692 -104.2331 84° East 505 581 35,100  Climbing Albuquerque Center
Sat 11:55:55 AM 34.9842 -104.0658 83° East 502 578 35,000 -49 Descending Albuquerque Center
Sat 11:56:57 AM 35.0003 -103.9000 84° East 497 572 35,000  Level Albuquerque Center
Sat 11:57:59 AM 35.0144 -103.7317 84° East 497 572 35,000 48 Level Albuquerque Center
Sat 11:59:01 AM 35.0308 -103.5317 83° East 503 579 35,100  Climbing Albuquerque Center
Sat 12:00:03 PM 35.0467 -103.3653 84° East 497 572 35,000 -48 Descending Albuquerque Center
Sat 12:01:05 PM 35.0603 -103.2008 85° East 488 562 35,000  Level Albuquerque Center
Sat 12:02:07 PM 35.0728 -103.0353 85° East 486 559 35,000 49 Level Albuquerque Center
Sat 12:03:08 PM 35.0864 -102.8506 84° East 492 566 35,100 49 Climbing Albuquerque Center
Sat 12:04:10 PM 35.1003 -102.6819 84° East 497 572 35,100 -48 Level Albuquerque Center
Sat 12:05:12 PM 35.1139 -102.5119 85° East 502 578 35,000 -48 Descending Albuquerque Center
Sat 12:06:14 PM 35.1258 -102.3417 85° East 503 579 35,000  Level Albuquerque Center
Sat 12:07:16 PM 35.1386 -102.1742 85° East 499 574 35,000  Level Albuquerque Center
Sat 12:08:18 PM 35.1503 -102.0075 84° East 496 571 35,000  Level Albuquerque Center
Sat 12:09:20 PM 35.1658 -101.8178 85° East 498 573 35,000  Level Albuquerque Center
Sat 12:10:22 PM 35.1764 -101.6539 85° East 495 570 35,000  Level Albuquerque Center
Sat 12:11:24 PM 35.1878 -101.4850 85° East 497 572 35,000 48 Level Albuquerque Center
Sat 12:12:26 PM 35.2000 -101.3156 86° East 498 573 35,100 49 Climbing Albuquerque Center
Sat 12:13:27 PM 35.2117 -101.1136 85° East 497 572 35,100 -49 Level Albuquerque Center
Sat 12:14:29 PM 35.2228 -100.9469 86° East 495 570 35,000 -48 Descending Albuquerque Center
Sat 12:15:31 PM 35.2333 -100.7803 86° East 493 567 35,000  Level Albuquerque Center
Sat 12:16:33 PM 35.2436 -100.6156 86° East 490 564 35,000  Level Albuquerque Center
Sat 12:17:35 PM 35.2539 -100.4500 88° East 488 562 35,000  Level Albuquerque Center
Sat 12:18:10 PM 35.2569 -100.3550 86° East 508 585 35,000  Level Fort Worth Center
Sat 12:19:10 PM 35.2669 -100.1875 86° East 496 571 35,000  Level Fort Worth Center
Sat 12:20:10 PM 35.2767 -100.0200 86° East 496 571 35,000  Level Fort Worth Center
Sat 12:21:10 PM 35.2864 -99.8550 86° East 491 565 35,000  Level Fort Worth Center
Sat 12:22:10 PM 35.2958 -99.6875 87° East 491 565 35,000  Level Fort Worth Center
Sat 12:23:10 PM 35.3028 -99.5250 79° East 491 565 35,000  Level Fort Worth Center
Sat 12:24:10 PM 35.3283 -99.3600 73° East 491 565 35,000  Level Fort Worth Center
Sat 12:25:10 PM 35.3683 -99.2006 72° East 491 565 35,000  Level Fort Worth Center
Sat 12:26:10 PM 35.4103 -99.0411 72° East 486 559 35,000  Level Fort Worth Center
Sat 12:27:10 PM 35.4519 -98.8789 73° East 491 565 35,000 50 Level Fort Worth Center
Sat 12:28:10 PM 35.4933 -98.7164 72° East 496 571 35,100  Climbing Fort Worth Center
Sat 12:29:10 PM 35.5344 -98.5589 73° East 496 571 35,000 -50 Descending Fort Worth Center
Sat 12:30:10 PM 35.5775 -98.3858 72° East 489 563 35,000  Level Fort Worth Center
Sat 12:32:36 PM 35.6778 -97.9939 73° East 478 550 35,000  Level Kansas City Center
Sat 12:33:36 PM 35.7133 -97.8469 73° East 478 550 35,000  Level Kansas City Center
Sat 12:34:36 PM 35.7531 -97.6900 73° East 478 550 35,000  Level Kansas City Center
Sat 12:35:36 PM 35.7928 -97.5275 74° East 484 557 35,000  Level Kansas City Center
Sat 12:36:36 PM 35.8303 -97.3678 74° East 484 557 35,000  Level Kansas City Center
Sat 12:37:36 PM 35.8719 -97.1897 73° East 489 563 35,000  Level Kansas City Center
Sat 12:38:36 PM 35.9108 -97.0294 74° East 489 563 35,000  Level Kansas City Center
Sat 12:39:36 PM 35.9497 -96.8667 75° East 489 563 35,000  Level Kansas City Center
Sat 12:40:36 PM 35.9861 -96.7033 74° East 489 563 35,000  Level Kansas City Center
Sat 12:41:36 PM 36.0225 -96.5453 73° East 484 557 35,000 -50 Level Kansas City Center
Sat 12:42:36 PM 36.0581 -96.4022 74° East 479 551 34,900  Descending Kansas City Center
Sat 12:43:36 PM 36.0939 -96.2464 74° East 473 544 35,000 50 Climbing Kansas City Center
Sat 12:44:36 PM 36.1294 -96.0875 75° East 473 544 35,000  Level Kansas City Center
Sat 12:45:36 PM 36.1650 -95.9261 76° East 473 544 35,000  Level Kansas City Center
Sat 12:46:36 PM 36.1981 -95.7594 82° East 478 550 35,000  Level Kansas City Center
Sat 12:47:36 PM 36.2164 -95.5975 82° East 478 550 35,000  Level Kansas City Center
Sat 12:48:36 PM 36.2344 -95.4331 85° East 484 557 35,000  Level Kansas City Center
Sat 12:51:05 PM 36.2617 -95.0056 91° East 480 552 35,000  Level Memphis Center
Sat 12:52:05 PM 36.2594 -94.8406 92° East 480 552 35,000  Level Memphis Center
Sat 12:53:05 PM 36.2547 -94.6756 97° East 480 552 35,000  Level Memphis Center
Sat 12:54:05 PM 36.2375 -94.5100 101° East 480 552 35,000  Level Memphis Center
Sat 12:55:06 PM 36.2114 -94.3492 100° East 480 552 35,000  Level Memphis Center
Sat 12:56:05 PM 36.1875 -94.1833 97° East 486 559 35,000  Level Memphis Center
Sat 12:57:05 PM 36.1697 -94.0156 101° East 486 559 35,000  Level Memphis Center
Sat 12:58:05 PM 36.1450 -93.8525 101° East 486 559 35,000  Level Memphis Center
Sat 12:59:05 PM 36.1203 -93.6897 100° East 486 559 35,000 -50 Level Memphis Center
Sat 01:00:05 PM 36.0975 -93.5269 100° East 481 554 34,900  Descending Memphis Center
Sat 01:01:05 PM 36.0744 -93.3667 100° East 481 554 35,000 50 Climbing Memphis Center
Sat 01:02:05 PM 36.0514 -93.1989 102° East 481 554 35,000  Level Memphis Center
Sat 01:03:05 PM 36.0236 -93.0389 101° East 481 554 35,000 50 Level Memphis Center
Sat 01:04:05 PM 35.9978 -92.8739 101° East 486 559 35,100  Climbing Memphis Center
Sat 01:05:05 PM 35.9756 -92.7269 101° East 491 565 35,000 -50 Descending Memphis Center
Sat 01:06:06 PM 35.9494 -92.5569 101° East 486 559 35,000 -250 Level Memphis Center
Sat 01:07:05 PM 35.9231 -92.3947 100° East 486 559 34,500 -1,150 Descending Memphis Center
Sat 01:08:06 PM 35.8986 -92.2278 102° East 486 559 32,700 -2,350 Descending Memphis Center
Sat 01:09:05 PM 35.8717 -92.0683 101° East 481 554 29,800 -2,521 Descending Memphis Center
Sat 01:10:05 PM 35.8467 -91.9167 101° East 465 535 27,700 -2,050 Descending Memphis Center
Sat 01:11:05 PM 35.8233 -91.7728 111° Southeast 444 511 25,700 -2,000 Descending Memphis Center
Sat 01:12:05 PM 35.7808 -91.6364 115° Southeast 432 497 23,700 -1,950 Descending Memphis Center
Sat 01:13:05 PM 35.7322 -91.5078 114° Southeast 421 484 21,800 -1,750 Descending Memphis Center
Sat 01:14:05 PM 35.6792 -91.3639 113° Southeast 416 479 20,200 -2,000 Descending Memphis Center
Sat 01:15:05 PM 35.6403 -91.2536 116° Southeast 399 459 17,800 -2,150 Descending Memphis Center
Sat 01:16:05 PM 35.5933 -91.1333 114° Southeast 399 459 15,900 -1,850 Descending Memphis Center
Sat 01:17:05 PM 35.5522 -91.0181 115° Southeast 381 438 14,100 -1,800 Descending Memphis Center
Sat 01:18:05 PM 35.5108 -90.9081 116° Southeast 363 418 12,300 -1,500 Descending Memphis Center
Sat 01:19:05 PM 35.4675 -90.7981 115° Southeast 357 411 11,100 -1,000 Descending Memphis Center
Sat 01:20:05 PM 35.4283 -90.6933 115° Southeast 335 386 10,300 -550 Descending Memphis Center
Sat 01:21:05 PM 35.3950 -90.6042 113° Southeast 306 352 10,000 -500 Descending Memphis Center
Sat 01:22:05 PM 35.3619 -90.5072 115° Southeast 298 343 9,300 -1,000 Descending Memphis Center
Sat 01:23:05 PM 35.3286 -90.4181 113° Southeast 298 343 8,000 -1,300 Descending Memphis Center
Sat 01:24:05 PM 35.2972 -90.3264 115° Southeast 293 337 6,700 -1,000 Descending Memphis Center
Sat 01:25:05 PM 35.2639 -90.2400 113° Southeast 293 337 6,000 -400 Descending Memphis Center
Sat 01:26:05 PM 35.2344 -90.1536 115° Southeast 275 316 5,900 -545 Descending Memphis Center
Sat 01:26:55 PM 35.2119 -90.0958 115° Southeast 243 280 5,000 -1,348 Descending FAA TRACON SMA TRACON (SMA)
Sat 01:27:34 PM 35.1931 -90.0461 121° Southeast 234 269 3,900 -1,500 Descending FAA TRACON SMA TRACON (SMA)
Sat 01:28:15 PM 35.1736 -90.0069 157° South 223 257 3,000 -1,275 Descending FAA TRACON SMA TRACON (SMA)
Sat 01:28:54 PM 35.1386 -89.9892 180° South 195 224 2,200 -1,200 Descending FAA TRACON SMA TRACON (SMA)
Sat 01:29:35 PM 35.1056 -89.9889 179° South 174 200 1,400 -988 Descending FAA TRACON SMA TRACON (SMA)
Sat 01:30:19 PM 35.0783 -89.9883 179° South 160 184 800 -684 Descending FAA TRACON SMA TRACON (SMA)
Sat 01:30:54 PM 35.0575 -89.9881 144° Southeast 160 184 500 -514 Descending FAA TRACON SMA TRACON (SMA)
Sat 01:40:32 PM 35.0333 -89.9667 318° Northwest  Level FlightAware Approximate
Sat 01:41:32 PM 35.1309 -90.0742 138° Southeast  Level Estimated
Sat 01:42:32 PM 35.0333 -89.9667 318° Northwest  Level FlightAware Approximate
Sat 01:43:32 PM 35.1309 -90.0742 138° Southeast  Level Estimated
Sat 01:44:32 PM 35.0333 -89.9667 318° Northwest  Level FlightAware Approximate
Sat 01:45:32 PM 35.1309 -90.0742 138° Southeast  Level Estimated
Sat 01:46:32 PM 35.0333 -89.9667 138° Southeast  Level FlightAware Approximate

Login

Don't have an account? Register now (free) for customized features, flight alerts, and more!